Time;durP1;ratioP1;P1;durP2;ratioP2;P2;SDS_P1;SDS_P2;PMS_P1;PMS_P2;Temp;Humidity;BMP_temperature;BMP_pressure;BME280_temperature;BME280_humidity;BME280_pressure;Samples;Min_cycle;Max_cycle;Signal;HPM_P1;HPM_P2
2021/03/13 00:00:12;;;;;;;15.55;3.22;;;7.90;90.30;;;;;;5093140;28;20091;-91
2021/03/13 00:02:39;;;;;;;16.38;2.67;;;7.80;90.40;;;;;;5068667;28;20020;-91
2021/03/13 00:05:05;;;;;;;11.88;2.95;;;7.80;90.50;;;;;;5094494;28;20024;-91
2021/03/13 00:07:31;;;;;;;11.70;2.60;;;7.80;90.60;;;;;;5076273;28;20077;-91
2021/03/13 00:09:56;;;;;;;15.93;2.60;;;7.70;90.80;;;;;;5076098;28;20542;-90
2021/03/13 00:12:22;;;;;;;18.20;3.17;;;7.70;90.90;;;;;;5094306;28;20062;-92
2021/03/13 00:14:48;;;;;;;12.93;3.05;;;7.70;90.90;;;;;;5093672;28;20028;-91
2021/03/13 00:17:14;;;;;;;15.30;2.95;;;7.70;90.80;;;;;;5093734;28;20569;-90
2021/03/13 00:19:39;;;;;;;13.15;2.40;;;7.70;91.10;;;;;;5093179;28;20102;-89
2021/03/13 00:22:05;;;;;;;12.48;2.63;;;7.80;91.00;;;;;;5075763;28;20097;-90
2021/03/13 00:24:31;;;;;;;11.75;2.70;;;7.70;90.90;;;;;;5078728;28;20030;-90
2021/03/13 00:26:56;;;;;;;14.63;2.60;;;7.70;91.00;;;;;;5100915;28;20352;-89
2021/03/13 00:29:22;;;;;;;12.15;2.38;;;7.70;91.00;;;;;;5093701;28;20402;-90
2021/03/13 00:31:53;;;;;;;17.63;2.95;;;7.70;90.90;;;;;;5094071;28;20518;-90
2021/03/13 00:34:19;;;;;;;14.00;2.80;;;7.70;91.00;;;;;;5096000;28;20020;-90
2021/03/13 00:36:45;;;;;;;17.63;2.20;;;7.70;91.20;;;;;;5069518;28;20017;-90
2021/03/13 00:39:11;;;;;;;16.15;2.03;;;7.70;91.30;;;;;;5089868;28;20020;-91
2021/03/13 00:41:36;;;;;;;18.48;2.42;;;7.70;91.40;;;;;;5075504;28;20049;-90
2021/03/13 00:44:02;;;;;;;12.50;2.03;;;7.60;91.40;;;;;;5076127;28;20366;-91
2021/03/13 00:46:28;;;;;;;19.85;2.55;;;7.60;91.50;;;;;;5093420;28;20028;-90
2021/03/13 00:48:53;;;;;;;9.30;1.88;;;7.60;91.40;;;;;;5053089;28;20047;-90
2021/03/13 00:51:19;;;;;;;15.57;3.05;;;7.70;91.50;;;;;;5079270;28;20023;-92
2021/03/13 00:53:45;;;;;;;15.88;3.40;;;7.70;91.40;;;;;;5093344;28;20452;-91
2021/03/13 00:56:10;;;;;;;11.27;2.35;;;7.70;91.60;;;;;;5076397;28;20387;-91
2021/03/13 00:58:36;;;;;;;12.68;2.38;;;7.70;91.60;;;;;;5078378;28;20036;-90
2021/03/13 01:01:02;;;;;;;13.50;2.13;;;7.70;91.70;;;;;;5069915;28;20025;-92
2021/03/13 01:03:27;;;;;;;17.02;2.40;;;7.70;91.60;;;;;;5094323;28;20028;-91
2021/03/13 01:05:53;;;;;;;14.65;2.58;;;7.70;91.50;;;;;;5079564;28;20093;-91
2021/03/13 01:08:18;;;;;;;15.55;3.13;;;7.70;91.60;;;;;;5086853;28;20029;-89
2021/03/13 01:10:45;;;;;;;15.15;3.10;;;7.70;91.60;;;;;;5095227;28;20020;-91
2021/03/13 01:13:10;;;;;;;14.45;3.10;;;7.70;91.70;;;;;;5112141;28;20020;-90
2021/03/13 01:15:36;;;;;;;13.88;3.40;;;7.70;92.00;;;;;;5091837;28;20042;-91
2021/03/13 01:18:03;;;;;;;10.88;2.33;;;7.80;91.70;;;;;;5101136;28;20473;-90
2021/03/13 01:20:29;;;;;;;9.38;1.95;;;7.70;91.80;;;;;;5091205;28;20034;-92
2021/03/13 01:22:55;;;;;;;13.20;2.72;;;7.70;92.20;;;;;;5055208;28;20028;-91
2021/03/13 01:25:21;;;;;;;11.68;2.25;;;7.70;92.50;;;;;;5068166;28;20036;-90
2021/03/13 01:27:46;;;;;;;12.98;2.95;;;7.60;93.00;;;;;;5088825;28;20083;-90
2021/03/13 01:30:19;;;;;;;11.57;2.83;;;7.60;93.30;;;;;;5075024;28;20047;-91
2021/03/13 01:32:45;;;;;;;11.52;2.13;;;7.60;93.40;;;;;;5092765;28;20027;-92
2021/03/13 01:35:11;;;;;;;11.50;2.75;;;7.60;93.80;;;;;;5075144;28;20032;-91
2021/03/13 01:37:37;;;;;;;12.63;2.95;;;7.60;94.00;;;;;;5072552;28;20024;-91
2021/03/13 01:40:10;;;;;;;19.25;3.67;;;7.60;94.30;;;;;;5050045;28;20031;-94
2021/03/13 01:42:36;;;;;;;10.77;2.55;;;7.60;94.30;;;;;;5061630;28;20005;-93
2021/03/13 01:45:04;;;;;;;11.80;2.85;;;7.50;94.50;;;;;;5065525;28;20196;-93
2021/03/13 01:47:29;;;;;;;12.43;3.28;;;7.50;94.80;;;;;;5102073;28;20023;-93
2021/03/13 01:49:56;;;;;;;13.68;2.80;;;7.50;95.10;;;;;;5078277;28;20044;-94
2021/03/13 01:52:22;;;;;;;10.00;2.70;;;7.40;95.30;;;;;;5096824;28;20167;-92
2021/03/13 01:54:49;;;;;;;12.35;3.20;;;7.40;95.70;;;;;;5062329;28;20056;-92
2021/03/13 01:57:16;;;;;;;15.15;3.10;;;7.30;95.80;;;;;;5079405;28;20024;-92
2021/03/13 01:59:42;;;;;;;10.55;2.80;;;7.30;96.00;;;;;;5097693;28;20016;-94
2021/03/13 02:02:11;;;;;;;10.95;2.78;;;7.20;96.30;;;;;;5082622;28;20585;-92
2021/03/13 02:04:37;;;;;;;11.48;3.05;;;7.20;96.40;;;;;;5079708;28;20103;-91
2021/03/13 02:07:24;;;;;;;5.85;2.50;;;7.20;96.50;;;;;;5096862;28;20102;-92
2021/03/13 02:10:11;;;;;;;14.82;3.10;;;7.20;96.60;;;;;;5075158;28;20090;-92
2021/03/13 02:13:04;;;;;;;12.50;3.63;;;7.20;96.70;;;;;;5072455;28;20054;-93
2021/03/13 02:15:40;;;;;;;15.70;4.30;;;7.20;96.80;;;;;;5077946;28;20028;-90
2021/03/13 02:18:16;;;;;;;12.80;3.55;;;7.10;97.00;;;;;;5082186;28;20016;-92
2021/03/13 02:20:59;;;;;;;12.60;3.25;;;7.10;97.10;;;;;;5070441;28;20027;-90
2021/03/13 02:23:27;;;;;;;17.67;3.67;;;7.00;97.30;;;;;;5082762;28;20028;-91
2021/03/13 02:26:34;;;;;;;10.90;3.72;;;7.00;97.50;;;;;;5078449;28;20479;-91
2021/03/13 02:29:28;;;;;;;12.02;3.92;;;7.00;97.80;;;;;;4998732;28;20058;-93
2021/03/13 02:31:58;;;;;;;7.93;3.15;;;6.90;97.90;;;;;;5014211;28;20053;-90
2021/03/13 02:34:30;;;;;;;11.07;3.65;;;6.90;98.10;;;;;;5068114;28;20060;-93
2021/03/13 02:37:00;;;;;;;13.13;3.65;;;6.90;98.50;;;;;;5058415;28;20008;-93
2021/03/13 02:39:28;;;;;;;14.70;4.40;;;6.90;98.30;;;;;;5069968;28;20032;-92
2021/03/13 02:41:59;;;;;;;10.32;4.18;;;6.90;98.40;;;;;;5095673;28;20020;-93
2021/03/13 02:44:25;;;;;;;12.48;4.60;;;6.80;98.60;;;;;;5085416;28;20024;-93
2021/03/13 02:46:51;;;;;;;13.45;4.78;;;6.80;98.70;;;;;;5089094;28;20024;-92
2021/03/13 02:49:20;;;;;;;11.32;4.65;;;6.90;98.80;;;;;;5066244;28;20036;-93
2021/03/13 02:51:47;;;;;;;9.65;3.78;;;6.80;98.70;;;;;;5095563;28;20035;-93
2021/03/13 02:54:14;;;;;;;10.57;4.10;;;6.80;98.80;;;;;;5077849;28;20028;-94
2021/03/13 02:56:42;;;;;;;11.32;4.63;;;6.80;98.80;;;;;;5058905;28;20543;-91
2021/03/13 02:59:10;;;;;;;10.75;4.50;;;6.80;98.90;;;;;;5073429;28;20119;-92
2021/03/13 03:01:36;;;;;;;9.93;5.10;;;6.70;99.00;;;;;;5088970;28;20074;-92
2021/03/13 03:04:03;;;;;;;10.85;4.25;;;6.80;99.20;;;;;;5076644;28;20429;-93
2021/03/13 03:06:36;;;;;;;8.35;4.15;;;6.70;99.20;;;;;;5055776;28;20074;-90
2021/03/13 03:09:05;;;;;;;9.45;4.30;;;6.70;99.30;;;;;;5097129;28;20024;-93
2021/03/13 03:11:32;;;;;;;11.57;4.65;;;6.60;99.40;;;;;;5095082;28;20456;-93
2021/03/13 03:13:58;;;;;;;10.10;4.90;;;6.60;99.50;;;;;;5093705;28;20472;-91
2021/03/13 03:16:24;;;;;;;7.00;4.00;;;6.70;99.60;;;;;;5077799;28;20102;-92
2021/03/13 03:18:54;;;;;;;12.00;5.50;;;6.70;99.60;;;;;;5075778;28;20020;-91
2021/03/13 03:21:20;;;;;;;12.20;4.95;;;6.70;99.60;;;;;;5094968;28;20094;-95
2021/03/13 03:23:46;;;;;;;11.07;4.15;;;6.60;99.70;;;;;;5082403;28;20024;-93
2021/03/13 03:26:12;;;;;;;10.23;4.25;;;6.70;99.70;;;;;;5091419;28;20471;-92
2021/03/13 03:28:38;;;;;;;10.48;4.30;;;6.80;99.70;;;;;;5076684;28;20020;-89
2021/03/13 03:31:04;;;;;;;11.32;4.45;;;6.70;99.70;;;;;;5095032;28;20043;-92
2021/03/13 03:33:29;;;;;;;10.13;4.15;;;6.70;99.70;;;;;;5073364;28;20028;-93
2021/03/13 03:35:55;;;;;;;13.95;4.43;;;6.70;99.70;;;;;;5059139;28;20034;-93
2021/03/13 03:38:21;;;;;;;12.05;4.22;;;6.80;99.70;;;;;;5063043;28;20024;-91
2021/03/13 03:40:47;;;;;;;12.32;4.53;;;6.80;99.70;;;;;;5057087;28;20476;-91
2021/03/13 03:43:13;;;;;;;13.15;4.25;;;6.80;99.80;;;;;;5078795;28;20024;-91
2021/03/13 03:45:41;;;;;;;9.60;3.75;;;6.80;99.80;;;;;;5074834;28;20035;-91
2021/03/13 03:48:10;;;;;;;8.30;3.75;;;6.80;99.90;;;;;;5074043;28;20480;-92
2021/03/13 03:50:37;;;;;;;9.13;3.92;;;6.80;99.90;;;;;;5056550;28;20353;-92
2021/03/13 03:53:06;;;;;;;9.82;3.10;;;6.80;99.90;;;;;;5088238;28;20066;-88
2021/03/13 03:55:35;;;;;;;10.50;3.03;;;6.80;99.80;;;;;;5064622;28;20036;-92
2021/03/13 03:58:02;;;;;;;7.35;3.17;;;6.80;99.90;;;;;;5075810;28;20016;-90
2021/03/13 04:00:28;;;;;;;9.77;3.08;;;6.90;99.90;;;;;;5057380;28;20025;-93
2021/03/13 04:02:57;;;;;;;7.93;3.05;;;6.80;99.90;;;;;;5074972;28;20036;-91
2021/03/13 04:05:23;;;;;;;13.95;3.30;;;6.80;99.90;;;;;;5076478;28;20024;-90
2021/03/13 04:07:51;;;;;;;11.55;3.35;;;6.80;99.90;;;;;;5083497;28;20028;-91
2021/03/13 04:10:17;;;;;;;10.57;2.90;;;6.80;99.90;;;;;;5088909;28;20035;-93
2021/03/13 04:12:45;;;;;;;7.95;3.13;;;6.80;99.90;;;;;;5070667;28;20032;-90
2021/03/13 04:15:12;;;;;;;7.07;3.75;;;6.80;99.90;;;;;;5079771;28;20046;-89
2021/03/13 04:17:38;;;;;;;11.25;4.13;;;6.80;99.90;;;;;;5081973;28;20047;-91
2021/03/13 04:20:06;;;;;;;11.23;3.15;;;6.80;99.90;;;;;;5096255;28;20097;-92
2021/03/13 04:22:33;;;;;;;13.65;4.25;;;6.80;99.90;;;;;;5072001;28;20016;-90
2021/03/13 04:25:02;;;;;;;12.73;4.00;;;6.90;99.90;;;;;;5083351;28;20067;-91
2021/03/13 04:27:28;;;;;;;11.27;3.78;;;6.90;99.90;;;;;;5098951;28;20020;-90
2021/03/13 04:29:54;;;;;;;12.88;3.65;;;6.90;99.90;;;;;;5077971;28;20016;-91
2021/03/13 04:32:21;;;;;;;13.75;4.32;;;6.90;99.90;;;;;;5078017;28;20115;-93
2021/03/13 04:34:49;;;;;;;9.75;3.20;;;6.90;99.90;;;;;;5076423;28;20028;-92
2021/03/13 04:37:16;;;;;;;9.45;3.50;;;6.90;99.90;;;;;;5093987;28;20054;-89
2021/03/13 04:39:43;;;;;;;10.02;3.40;;;6.90;99.90;;;;;;5075358;28;20030;-90
2021/03/13 04:42:09;;;;;;;10.32;3.17;;;6.90;99.90;;;;;;5083512;28;20015;-91
2021/03/13 04:44:37;;;;;;;7.47;3.33;;;6.90;99.90;;;;;;5100174;28;20056;-89
2021/03/13 04:47:03;;;;;;;9.75;3.25;;;7.00;99.90;;;;;;5095075;28;20023;-92
2021/03/13 04:49:29;;;;;;;9.95;3.17;;;7.00;99.90;;;;;;5073840;28;20532;-89
2021/03/13 04:51:59;;;;;;;8.40;3.30;;;7.00;99.90;;;;;;5091068;28;20012;-89
2021/03/13 04:54:28;;;;;;;8.57;3.03;;;7.10;99.90;;;;;;5094287;28;20041;-90
2021/03/13 04:56:54;;;;;;;8.13;3.08;;;7.10;99.90;;;;;;5074224;28;20039;-89
2021/03/13 04:59:20;;;;;;;7.25;3.05;;;7.10;99.90;;;;;;5094692;28;20474;-88
2021/03/13 05:01:46;;;;;;;10.32;3.13;;;7.20;99.90;;;;;;5095041;28;20051;-91
2021/03/13 05:04:11;;;;;;;9.20;2.95;;;7.20;99.90;;;;;;5080052;28;20098;-90
2021/03/13 05:06:37;;;;;;;8.88;3.38;;;7.20;99.80;;;;;;5083722;28;20052;-89
2021/03/13 05:09:03;;;;;;;8.63;3.00;;;7.20;99.80;;;;;;5075126;28;20047;-90
2021/03/13 05:11:29;;;;;;;9.88;3.67;;;7.20;99.70;;;;;;5075740;28;20036;-89
2021/03/13 05:13:54;;;;;;;8.07;3.13;;;7.20;99.80;;;;;;5074885;28;20033;-90
2021/03/13 05:16:20;;;;;;;8.35;3.55;;;7.30;99.90;;;;;;5074867;28;20032;-90
2021/03/13 05:18:46;;;;;;;11.40;3.83;;;7.30;99.90;;;;;;5074556;28;20066;-87
2021/03/13 05:21:13;;;;;;;12.45;3.42;;;7.30;99.90;;;;;;5093249;28;20035;-88
2021/03/13 05:23:41;;;;;;;8.48;2.67;;;7.30;99.90;;;;;;5089545;28;20451;-89
2021/03/13 05:26:06;;;;;;;7.15;2.88;;;7.30;99.80;;;;;;5053164;28;20094;-86
2021/03/13 05:28:32;;;;;;;8.00;3.10;;;7.40;99.90;;;;;;5077005;28;20028;-88
2021/03/13 05:30:58;;;;;;;5.13;2.63;;;7.30;99.90;;;;;;5093067;28;20020;-88
2021/03/13 05:33:23;;;;;;;9.35;2.95;;;7.30;99.90;;;;;;5078746;28;20024;-88
2021/03/13 05:35:49;;;;;;;7.28;2.50;;;7.30;99.90;;;;;;5096374;28;20403;-91
2021/03/13 05:38:15;;;;;;;7.25;3.55;;;7.40;99.90;;;;;;5079034;28;20413;-90
2021/03/13 05:40:40;;;;;;;9.82;2.83;;;7.40;99.90;;;;;;5096537;28;20024;-87
2021/03/13 05:43:07;;;;;;;6.07;2.63;;;7.40;99.90;;;;;;5096311;28;20032;-89
2021/03/13 05:45:33;;;;;;;8.70;2.50;;;7.40;99.90;;;;;;5096554;28;20077;-89
2021/03/13 05:48:01;;;;;;;5.35;2.30;;;7.30;99.90;;;;;;5092725;28;20109;-92
2021/03/13 05:50:28;;;;;;;8.15;2.97;;;7.40;99.90;;;;;;5087045;28;20068;-89
2021/03/13 05:52:55;;;;;;;7.47;2.53;;;7.30;99.90;;;;;;5101960;28;20107;-90
2021/03/13 05:55:21;;;;;;;7.82;2.40;;;7.40;99.90;;;;;;5085570;28;20035;-90
2021/03/13 05:57:50;;;;;;;8.10;2.80;;;7.40;99.90;;;;;;5103262;28;20024;-86
2021/03/13 06:00:16;;;;;;;8.50;2.58;;;7.40;99.90;;;;;;5096330;28;20024;-88
2021/03/13 06:02:42;;;;;;;9.07;2.45;;;7.40;99.90;;;;;;5089771;28;20034;-88
2021/03/13 06:05:09;;;;;;;9.30;2.25;;;7.40;99.90;;;;;;5080313;28;20036;-87
2021/03/13 06:07:35;;;;;;;7.35;2.72;;;7.40;99.90;;;;;;5077849;28;20020;-88
2021/03/13 06:10:01;;;;;;;8.75;3.22;;;7.50;99.90;;;;;;5075544;28;20123;-87
2021/03/13 06:12:27;;;;;;;8.55;2.20;;;7.50;99.90;;;;;;5076419;28;20104;-88
2021/03/13 06:14:54;;;;;;;7.28;2.15;;;7.50;99.90;;;;;;5072029;28;20032;-86
2021/03/13 06:17:22;;;;;;;12.98;2.40;;;7.50;99.90;;;;;;5064981;28;20009;-87
2021/03/13 06:19:54;;;;;;;13.38;2.30;;;7.50;99.90;;;;;;5082704;28;20480;-88
2021/03/13 06:22:39;;;;;;;5.35;0.95;;;7.70;99.90;;;;;;5074703;28;20052;-87
2021/03/13 06:25:26;;;;;;;3.30;0.63;;;7.50;98.80;;;;;;5076164;28;20020;-89
2021/03/13 06:28:05;;;;;;;2.42;0.57;;;7.40;98.00;;;;;;5077770;28;20020;-87
2021/03/13 06:30:39;;;;;;;2.83;0.60;;;7.00;97.40;;;;;;5072618;28;20028;-89
2021/03/13 06:33:23;;;;;;;3.53;1.17;;;6.60;98.10;;;;;;5094674;28;20072;-89
2021/03/13 06:35:50;;;;;;;6.72;1.98;;;6.60;99.40;;;;;;5092256;28;20049;-88
2021/03/13 06:38:19;;;;;;;8.18;2.13;;;6.60;99.90;;;;;;5066470;28;20019;-87
2021/03/13 06:40:46;;;;;;;8.13;2.38;;;6.70;99.90;;;;;;5084387;28;20024;-88
2021/03/13 06:43:25;;;;;;;9.05;1.90;;;6.80;99.90;;;;;;5078735;28;20016;-85
2021/03/13 06:46:08;;;;;;;3.80;1.60;;;6.90;99.90;;;;;;5102195;28;20024;-87
2021/03/13 06:48:38;;;;;;;4.13;1.50;;;6.90;99.90;;;;;;5094733;28;20043;-87
2021/03/13 06:51:20;;;;;;;6.27;2.03;;;7.00;99.90;;;;;;5094463;28;20390;-87
2021/03/13 06:54:06;;;;;;;5.10;1.08;;;7.00;99.90;;;;;;5081329;28;20028;-87
2021/03/13 06:56:46;;;;;;;5.35;1.05;;;7.00;99.90;;;;;;5094090;28;20020;-87
2021/03/13 06:59:39;;;;;;;5.72;1.25;;;7.00;99.90;;;;;;5070587;28;20031;-87
2021/03/13 07:02:11;;;;;;;4.03;1.15;;;6.90;99.30;;;;;;5084451;28;20027;-87
2021/03/13 07:04:39;;;;;;;6.95;1.00;;;6.90;98.70;;;;;;5099132;28;20016;-86
2021/03/13 07:07:06;;;;;;;9.25;1.20;;;6.90;98.60;;;;;;5094005;28;20020;-86
2021/03/13 07:09:53;;;;;;;4.28;1.67;;;6.80;98.00;;;;;;5075881;28;20518;-86
2021/03/13 07:12:29;;;;;;;6.05;1.50;;;6.70;97.80;;;;;;5068029;28;20020;-87
2021/03/13 07:15:12;;;;;;;5.50;1.48;;;6.70;97.60;;;;;;5082954;28;20024;-86
2021/03/13 07:17:41;;;;;;;8.27;1.27;;;6.70;97.40;;;;;;5094093;28;20043;-87
2021/03/13 07:20:07;;;;;;;8.07;2.47;;;6.60;97.50;;;;;;5075845;28;20016;-87
2021/03/13 07:22:34;;;;;;;4.85;0.85;;;6.60;97.60;;;;;;5093971;28;20051;-87
2021/03/13 07:25:01;;;;;;;7.30;1.63;;;6.60;97.30;;;;;;5075633;28;20032;-86
2021/03/13 07:27:30;;;;;;;7.72;1.02;;;6.60;97.50;;;;;;5059468;28;20023;-86
2021/03/13 07:29:57;;;;;;;4.03;1.13;;;6.60;97.30;;;;;;5094153;28;20017;-84
2021/03/13 07:32:27;;;;;;;9.77;1.65;;;6.60;97.00;;;;;;5093751;28;20035;-87
2021/03/13 07:34:57;;;;;;;9.05;1.98;;;6.60;96.80;;;;;;5093970;28;20416;-87
2021/03/13 07:37:23;;;;;;;8.37;1.47;;;6.60;96.40;;;;;;5076025;28;20531;-87
2021/03/13 07:39:53;;;;;;;7.95;1.70;;;6.60;97.00;;;;;;5094207;28;20610;-86
2021/03/13 07:42:20;;;;;;;10.05;1.35;;;6.60;96.60;;;;;;5075972;28;20119;-85
2021/03/13 07:44:47;;;;;;;8.63;1.77;;;6.60;96.50;;;;;;5075557;28;20078;-87
2021/03/13 07:47:18;;;;;;;8.27;1.73;;;6.60;96.10;;;;;;5094043;28;20046;-85
2021/03/13 07:49:44;;;;;;;;;;;6.60;96.40;;;;;;5093977;28;20051;-86
2021/03/13 07:52:12;;;;;;;10.10;2.20;;;6.60;96.00;;;;;;5075534;28;19904;-85
2021/03/13 07:54:44;;;;;;;14.05;3.92;;;6.60;95.40;;;;;;5093242;28;20038;-85
2021/03/13 07:57:11;;;;;;;17.38;2.38;;;6.70;95.90;;;;;;5074527;28;20020;-86
2021/03/13 07:59:47;;;;;;;13.90;2.22;;;6.70;95.50;;;;;;5038723;28;20028;-86
2021/03/13 08:02:31;;;;;;;12.27;2.08;;;6.70;95.20;;;;;;5074674;28;20101;-88
2021/03/13 08:05:01;;;;;;;13.30;2.67;;;6.80;94.90;;;;;;5092414;28;20111;-88
2021/03/13 08:07:28;;;;;;;20.63;2.67;;;6.80;94.30;;;;;;5092861;28;20016;-88
2021/03/13 08:09:55;;;;;;;13.13;2.47;;;6.90;94.90;;;;;;5086914;28;20030;-87
2021/03/13 08:12:40;;;;;;;11.02;1.98;;;6.90;94.40;;;;;;5076663;28;20016;-88
2021/03/13 08:15:13;;;;;;;17.90;4.13;;;7.00;94.00;;;;;;5093076;28;20494;-89
2021/03/13 08:17:40;;;;;;;12.20;2.38;;;7.00;94.30;;;;;;5081007;28;20017;-87
2021/03/13 08:20:08;;;;;;;16.10;2.67;;;7.10;94.40;;;;;;5073610;28;20012;-87
2021/03/13 08:22:33;;;;;;;12.98;2.17;;;7.10;93.80;;;;;;5080677;28;20029;-87
2021/03/13 08:24:59;;;;;;;19.48;2.70;;;7.20;94.20;;;;;;5038921;28;20375;-87
2021/03/13 08:27:34;;;;;;;15.15;2.67;;;7.20;93.80;;;;;;5075137;28;20024;-88
2021/03/13 08:30:00;;;;;;;20.88;2.72;;;7.30;94.00;;;;;;5075578;28;20020;-86
2021/03/13 08:33:03;;;;;;;14.25;3.20;;;7.30;94.20;;;;;;5073979;28;20044;-87
2021/03/13 08:35:47;;;;;;;15.65;2.28;;;7.40;94.10;;;;;;5074109;28;20424;-87
2021/03/13 08:38:14;;;;;;;16.70;2.72;;;7.40;94.20;;;;;;5073964;28;20016;-86
2021/03/13 08:40:46;;;;;;;13.95;2.25;;;7.40;94.20;;;;;;5072841;28;20017;-86
2021/03/13 08:43:38;;;;;;;15.38;2.72;;;7.40;94.10;;;;;;5072543;28;20048;-85
2021/03/13 08:46:05;;;;;;;15.77;2.47;;;7.50;94.10;;;;;;5054391;28;20040;-88
2021/03/13 08:48:59;;;;;;;12.98;2.35;;;7.40;93.30;;;;;;5052695;28;20055;-86
2021/03/13 08:51:25;;;;;;;9.75;2.28;;;7.50;93.00;;;;;;5054740;28;20107;-88
2021/03/13 08:53:52;;;;;;;13.38;2.15;;;7.50;92.70;;;;;;5050968;28;20124;-87
2021/03/13 08:56:36;;;;;;;10.73;2.40;;;7.50;92.70;;;;;;5062800;28;20027;-87
2021/03/13 08:59:28;;;;;;;19.38;3.15;;;7.50;92.70;;;;;;5074148;28;20419;-87
2021/03/13 09:02:17;;;;;;;14.55;2.53;;;7.50;91.40;;;;;;5055623;28;20036;-88
2021/03/13 09:04:51;;;;;;;16.60;2.70;;;7.50;91.10;;;;;;5084626;28;20032;-87
2021/03/13 09:07:24;;;;;;;11.30;2.22;;;7.60;91.70;;;;;;5091179;28;20016;-85
2021/03/13 09:09:51;;;;;;;12.65;2.55;;;7.60;91.70;;;;;;5092990;28;20020;-88
2021/03/13 09:12:19;;;;;;;17.48;2.75;;;7.60;91.20;;;;;;5074210;28;20024;-86
2021/03/13 09:14:49;;;;;;;16.70;3.15;;;7.70;91.70;;;;;;5074955;28;20024;-87
2021/03/13 09:17:19;;;;;;;16.67;3.47;;;7.70;91.50;;;;;;5074403;28;20016;-87
2021/03/13 09:19:47;;;;;;;19.23;3.53;;;7.70;91.00;;;;;;5067940;28;20501;-88
2021/03/13 09:22:16;;;;;;;20.80;5.07;;;7.70;90.40;;;;;;5079177;28;20028;-87
2021/03/13 09:24:50;;;;;;;14.50;2.92;;;7.70;90.90;;;;;;5092783;28;20494;-89
2021/03/13 09:27:15;;;;;;;22.95;3.55;;;7.80;91.00;;;;;;5074879;28;20132;-88
2021/03/13 09:29:41;;;;;;;22.60;4.55;;;7.80;90.90;;;;;;5081912;28;20051;-88
2021/03/13 09:32:12;;;;;;;24.70;3.33;;;7.80;90.60;;;;;;5078549;28;20016;-88
2021/03/13 09:34:43;;;;;;;19.50;3.17;;;7.80;90.20;;;;;;5078425;28;20069;-88
2021/03/13 09:37:18;;;;;;;17.23;3.25;;;7.80;90.40;;;;;;5082509;28;20020;-87
2021/03/13 09:39:46;;;;;;;19.10;3.20;;;7.80;90.90;;;;;;5074738;28;20043;-87
2021/03/13 09:42:20;;;;;;;19.23;3.05;;;7.80;90.50;;;;;;5092256;28;20021;-88
2021/03/13 09:44:48;;;;;;;16.40;3.47;;;7.90;90.80;;;;;;5092910;28;20033;-87
2021/03/13 09:47:17;;;;;;;13.70;2.78;;;7.90;90.10;;;;;;5090199;28;20065;-87
2021/03/13 09:49:50;;;;;;;18.58;3.05;;;8.00;90.40;;;;;;5067931;28;20136;-86
2021/03/13 09:52:23;;;;;;;17.67;3.35;;;8.00;90.70;;;;;;5058928;28;20735;-87
2021/03/13 09:54:49;;;;;;;12.20;2.88;;;8.10;90.50;;;;;;5053320;28;20029;-87
2021/03/13 09:57:14;;;;;;;20.35;3.90;;;8.10;90.60;;;;;;5048601;28;20125;-87
2021/03/13 09:59:41;;;;;;;16.13;2.90;;;8.10;90.50;;;;;;5016443;28;20029;-87
2021/03/13 10:02:08;;;;;;;26.55;5.25;;;8.10;91.60;;;;;;5048760;28;20013;-87
2021/03/13 10:04:34;;;;;;;13.95;2.90;;;8.00;93.00;;;;;;5030303;28;20059;-89
2021/03/13 10:07:00;;;;;;;11.43;2.28;;;7.80;92.50;;;;;;5028457;28;20492;-88
2021/03/13 10:09:26;;;;;;;10.50;2.08;;;7.70;93.30;;;;;;5051837;28;20108;-87
2021/03/13 10:11:52;;;;;;;11.68;2.25;;;7.60;93.80;;;;;;5053470;28;20481;-89
2021/03/13 10:14:22;;;;;;;13.63;2.47;;;7.50;94.30;;;;;;5043450;28;20032;-88
2021/03/13 10:16:57;;;;;;;14.70;2.97;;;7.60;94.90;;;;;;5054990;28;20373;-90
2021/03/13 10:19:33;;;;;;;16.25;3.25;;;7.60;95.30;;;;;;5055541;28;20029;-90
2021/03/13 10:22:07;;;;;;;14.65;2.90;;;7.60;95.70;;;;;;5055989;28;20024;-88
2021/03/13 10:24:45;;;;;;;16.15;3.10;;;7.60;95.80;;;;;;5045419;28;20492;-88
2021/03/13 10:27:10;;;;;;;21.08;3.58;;;7.60;96.10;;;;;;5066481;28;20124;-88
2021/03/13 10:29:36;;;;;;;14.48;4.38;;;7.60;96.00;;;;;;5054021;28;20053;-89
2021/03/13 10:32:03;;;;;;;23.85;5.60;;;7.60;96.30;;;;;;5034643;28;20144;-86
2021/03/13 10:34:38;;;;;;;20.63;3.45;;;7.60;96.70;;;;;;5053588;28;20021;-84
2021/03/13 10:37:03;;;;;;;21.98;3.92;;;7.70;96.80;;;;;;5054545;28;20052;-84
2021/03/13 10:39:29;;;;;;;24.38;4.05;;;7.60;95.60;;;;;;5054518;28;20469;-85
2021/03/13 10:42:04;;;;;;;18.85;4.00;;;7.70;95.80;;;;;;5056169;28;20031;-86
2021/03/13 10:44:29;;;;;;;14.48;2.80;;;7.70;95.80;;;;;;5066230;28;20016;-89
2021/03/13 10:46:55;;;;;;;13.38;3.25;;;7.50;95.10;;;;;;5062421;28;20044;-89
2021/03/13 10:49:26;;;;;;;14.43;2.83;;;7.50;95.30;;;;;;5043410;28;20045;-89
2021/03/13 10:51:53;;;;;;;20.13;4.10;;;7.40;95.80;;;;;;5079749;28;20017;-87
2021/03/13 10:54:21;;;;;;;23.08;4.28;;;7.30;96.10;;;;;;5077753;28;20023;-88
2021/03/13 10:56:47;;;;;;;24.33;4.38;;;7.30;96.50;;;;;;5084397;28;20058;-87
2021/03/13 10:59:12;;;;;;;24.70;4.07;;;7.40;96.80;;;;;;5081370;28;20448;-85
2021/03/13 11:01:43;;;;;;;30.70;5.07;;;7.40;97.10;;;;;;5084810;28;20020;-88
2021/03/13 11:04:09;;;;;;;25.67;5.43;;;7.40;97.10;;;;;;5068279;28;20108;-88
2021/03/13 11:06:35;;;;;;;26.95;3.95;;;7.40;97.10;;;;;;5073459;28;20103;-87
2021/03/13 11:09:10;;;;;;;19.80;3.58;;;7.40;96.60;;;;;;5075478;28;20023;-88
2021/03/13 11:11:37;;;;;;;24.75;4.45;;;7.40;96.50;;;;;;5097278;28;20061;-88
2021/03/13 11:14:06;;;;;;;25.13;4.32;;;7.40;96.50;;;;;;5079181;28;20025;-88
2021/03/13 11:16:32;;;;;;;19.58;3.03;;;7.50;96.70;;;;;;5077281;28;20024;-88
2021/03/13 11:18:59;;;;;;;22.67;4.07;;;7.60;96.70;;;;;;5054597;28;20066;-86
2021/03/13 11:21:26;;;;;;;21.33;4.32;;;7.70;96.20;;;;;;5069741;28;20436;-89
2021/03/13 11:23:53;;;;;;;24.15;3.88;;;7.70;95.50;;;;;;5077194;28;20024;-85
2021/03/13 11:26:23;;;;;;;22.13;4.45;;;7.80;95.10;;;;;;5089811;28;20063;-88
2021/03/13 11:28:51;;;;;;;19.92;4.50;;;7.90;94.80;;;;;;5073434;28;20029;-88
2021/03/13 11:31:17;;;;;;;16.00;3.70;;;8.00;93.70;;;;;;5083921;28;20019;-88
2021/03/13 11:33:43;;;;;;;13.50;2.97;;;7.90;93.60;;;;;;5092200;28;20165;-89
2021/03/13 11:36:09;;;;;;;17.33;3.47;;;7.90;92.20;;;;;;5091549;28;20527;-86
2021/03/13 11:38:36;;;;;;;21.67;4.13;;;7.90;91.20;;;;;;5053405;28;20448;-87
2021/03/13 11:41:03;;;;;;;17.48;3.75;;;7.80;91.90;;;;;;5077428;28;20028;-88
2021/03/13 11:43:30;;;;;;;15.85;2.05;;;7.60;92.90;;;;;;5059654;28;20028;-89
2021/03/13 11:45:56;;;;;;;13.05;2.38;;;7.60;93.80;;;;;;5072388;28;20490;-90
2021/03/13 11:48:22;;;;;;;13.55;2.50;;;7.60;93.80;;;;;;5072479;28;20025;-88
2021/03/13 11:50:48;;;;;;;12.73;2.75;;;7.60;94.40;;;;;;5085825;28;20063;-88
2021/03/13 11:53:13;;;;;;;11.48;2.13;;;7.70;94.10;;;;;;5057073;28;20475;-86
2021/03/13 11:55:39;;;;;;;10.02;2.00;;;7.80;93.30;;;;;;5044935;28;20035;-87
2021/03/13 11:58:05;;;;;;;8.75;2.33;;;7.90;92.60;;;;;;5084922;28;20026;-86
2021/03/13 12:00:31;;;;;;;10.57;2.30;;;7.90;92.70;;;;;;5061305;28;20035;-85
2021/03/13 12:02:57;;;;;;;14.02;2.50;;;8.00;92.70;;;;;;5093437;28;20394;-88
2021/03/13 12:05:23;;;;;;;17.13;3.72;;;8.00;92.90;;;;;;5063414;28;20036;-87
2021/03/13 12:07:48;;;;;;;13.77;2.97;;;8.10;93.00;;;;;;5066800;28;20487;-86
2021/03/13 12:10:14;;;;;;;14.02;3.05;;;8.20;92.80;;;;;;5059126;28;20028;-86
2021/03/13 12:12:40;;;;;;;14.05;2.88;;;8.30;93.40;;;;;;5078055;28;20047;-86
2021/03/13 12:15:08;;;;;;;16.55;2.83;;;8.40;93.70;;;;;;5069927;28;20074;-87
2021/03/13 12:17:34;;;;;;;21.85;5.05;;;8.60;93.80;;;;;;5086024;28;20028;-88
2021/03/13 12:20:00;;;;;;;20.08;3.58;;;8.60;92.90;;;;;;5067189;28;20071;-88
2021/03/13 12:22:26;;;;;;;21.95;4.18;;;8.70;92.10;;;;;;5036746;28;20447;-89
2021/03/13 12:24:52;;;;;;;13.20;2.53;;;8.70;92.40;;;;;;5067299;28;20038;-88
2021/03/13 12:27:18;;;;;;;15.25;2.05;;;8.70;92.30;;;;;;5073882;28;20024;-88
2021/03/13 12:29:44;;;;;;;11.93;2.72;;;8.70;92.10;;;;;;5053826;28;20029;-88
2021/03/13 12:32:10;;;;;;;11.35;2.60;;;8.60;91.60;;;;;;5085476;28;20043;-88
2021/03/13 12:34:35;;;;;;;8.00;1.67;;;8.50;91.20;;;;;;5066533;28;20016;-88
2021/03/13 12:37:01;;;;;;;11.98;2.05;;;8.50;92.30;;;;;;5058503;28;20032;-88
2021/03/13 12:39:27;;;;;;;12.13;2.25;;;8.40;92.70;;;;;;5056012;28;20017;-88
2021/03/13 12:41:52;;;;;;;10.80;2.30;;;8.50;92.50;;;;;;5059326;28;20364;-89
2021/03/13 12:44:18;;;;;;;11.82;2.40;;;8.50;92.60;;;;;;5075511;28;20051;-88
2021/03/13 12:46:44;;;;;;;11.93;2.03;;;8.50;91.60;;;;;;5083278;28;20059;-84
2021/03/13 12:49:10;;;;;;;9.80;2.00;;;8.50;91.60;;;;;;5106391;28;20077;-88
2021/03/13 12:51:40;;;;;;;9.77;1.98;;;8.60;91.60;;;;;;5096650;28;20043;-89
2021/03/13 12:54:07;;;;;;;8.40;2.33;;;8.60;90.30;;;;;;5066700;28;20024;-85
2021/03/13 12:56:33;;;;;;;10.20;2.17;;;8.80;90.10;;;;;;5071951;28;20029;-88
2021/03/13 12:58:58;;;;;;;13.20;2.72;;;8.80;87.70;;;;;;5042274;28;20408;-88